sensor_id;sensor_type;location;lat;lon;timestamp;temperature;humidity
42365;DHT22;28498;54.400;18.566;2023-04-06T00:00:15;-2.60;99.90
42365;DHT22;28498;54.400;18.566;2023-04-06T00:02:43;-2.50;99.90
42365;DHT22;28498;54.400;18.566;2023-04-06T00:05:10;-2.40;99.90
42365;DHT22;28498;54.400;18.566;2023-04-06T00:07:37;-2.30;99.90
42365;DHT22;28498;54.400;18.566;2023-04-06T00:10:05;-2.40;99.90
42365;DHT22;28498;54.400;18.566;2023-04-06T00:12:32;-2.30;99.90
42365;DHT22;28498;54.400;18.566;2023-04-06T00:14:59;-2.40;99.90
42365;DHT22;28498;54.400;18.566;2023-04-06T00:17:28;-2.50;99.90
42365;DHT22;28498;54.400;18.566;2023-04-06T00:19:55;-2.50;99.90
42365;DHT22;28498;54.400;18.566;2023-04-06T00:22:22;-2.50;99.90
42365;DHT22;28498;54.400;18.566;2023-04-06T00:24:49;-2.60;99.90
42365;DHT22;28498;54.400;18.566;2023-04-06T00:27:16;-2.60;99.90
42365;DHT22;28498;54.400;18.566;2023-04-06T00:29:44;-2.60;99.90
42365;DHT22;28498;54.400;18.566;2023-04-06T00:32:12;-2.60;99.90
42365;DHT22;28498;54.400;18.566;2023-04-06T00:34:39;-2.50;99.90
42365;DHT22;28498;54.400;18.566;2023-04-06T00:37:06;-2.50;99.90
42365;DHT22;28498;54.400;18.566;2023-04-06T00:39:33;-2.50;99.90
42365;DHT22;28498;54.400;18.566;2023-04-06T00:42:00;-2.50;99.90
42365;DHT22;28498;54.400;18.566;2023-04-06T00:44:31;-2.50;99.90
42365;DHT22;28498;54.400;18.566;2023-04-06T00:46:58;-2.50;99.90
42365;DHT22;28498;54.400;18.566;2023-04-06T00:49:26;-2.50;99.90
42365;DHT22;28498;54.400;18.566;2023-04-06T00:51:53;-2.50;99.90
42365;DHT22;28498;54.400;18.566;2023-04-06T00:54:20;-2.40;99.90
42365;DHT22;28498;54.400;18.566;2023-04-06T00:56:47;-2.40;99.90
42365;DHT22;28498;54.400;18.566;2023-04-06T00:59:14;-2.10;99.90
42365;DHT22;28498;54.400;18.566;2023-04-06T01:01:42;-2.20;99.90
42365;DHT22;28498;54.400;18.566;2023-04-06T01:04:09;-2.20;99.90
42365;DHT22;28498;54.400;18.566;2023-04-06T01:06:36;-2.10;99.90
42365;DHT22;28498;54.400;18.566;2023-04-06T01:09:03;-1.90;99.90
42365;DHT22;28498;54.400;18.566;2023-04-06T01:11:31;-1.90;99.90
42365;DHT22;28498;54.400;18.566;2023-04-06T01:13:58;-2.00;99.90
42365;DHT22;28498;54.400;18.566;2023-04-06T01:16:25;-2.10;99.90
42365;DHT22;28498;54.400;18.566;2023-04-06T01:18:52;-2.10;99.90
42365;DHT22;28498;54.400;18.566;2023-04-06T01:21:19;-2.10;99.90
42365;DHT22;28498;54.400;18.566;2023-04-06T01:23:46;-1.90;99.90
42365;DHT22;28498;54.400;18.566;2023-04-06T01:26:13;-1.80;99.90
42365;DHT22;28498;54.400;18.566;2023-04-06T01:28:41;-1.90;99.90
42365;DHT22;28498;54.400;18.566;2023-04-06T01:31:08;-2.00;99.90
42365;DHT22;28498;54.400;18.566;2023-04-06T01:33:36;-2.00;99.90
42365;DHT22;28498;54.400;18.566;2023-04-06T01:36:03;-2.00;99.90
42365;DHT22;28498;54.400;18.566;2023-04-06T01:38:31;-2.00;99.90
42365;DHT22;28498;54.400;18.566;2023-04-06T01:40:58;-2.10;99.90
42365;DHT22;28498;54.400;18.566;2023-04-06T01:43:25;-2.10;99.90
42365;DHT22;28498;54.400;18.566;2023-04-06T01:45:52;-2.10;99.90
42365;DHT22;28498;54.400;18.566;2023-04-06T01:48:19;-2.10;99.90
42365;DHT22;28498;54.400;18.566;2023-04-06T01:50:46;-2.20;99.90
42365;DHT22;28498;54.400;18.566;2023-04-06T01:53:13;-2.30;99.90
42365;DHT22;28498;54.400;18.566;2023-04-06T01:55:42;-2.50;99.90
42365;DHT22;28498;54.400;18.566;2023-04-06T01:58:09;-2.50;99.90
42365;DHT22;28498;54.400;18.566;2023-04-06T02:00:36;-2.50;99.90
42365;DHT22;28498;54.400;18.566;2023-04-06T02:03:03;-2.60;99.90
42365;DHT22;28498;54.400;18.566;2023-04-06T02:05:31;-2.60;99.90
42365;DHT22;28498;54.400;18.566;2023-04-06T02:07:59;-2.70;99.90
42365;DHT22;28498;54.400;18.566;2023-04-06T02:10:27;-2.80;99.90
42365;DHT22;28498;54.400;18.566;2023-04-06T02:12:54;-2.80;99.90
42365;DHT22;28498;54.400;18.566;2023-04-06T02:15:21;-2.80;99.90
42365;DHT22;28498;54.400;18.566;2023-04-06T02:17:48;-2.90;99.90
42365;DHT22;28498;54.400;18.566;2023-04-06T02:20:15;-3.00;99.90
42365;DHT22;28498;54.400;18.566;2023-04-06T02:22:42;-2.90;99.90
42365;DHT22;28498;54.400;18.566;2023-04-06T02:25:09;-2.80;99.90
42365;DHT22;28498;54.400;18.566;2023-04-06T02:27:36;-2.80;99.90
42365;DHT22;28498;54.400;18.566;2023-04-06T02:30:04;-3.00;99.90
42365;DHT22;28498;54.400;18.566;2023-04-06T02:32:31;-3.00;99.90
42365;DHT22;28498;54.400;18.566;2023-04-06T02:34:58;-2.90;99.90
42365;DHT22;28498;54.400;18.566;2023-04-06T02:37:25;-2.90;99.90
42365;DHT22;28498;54.400;18.566;2023-04-06T02:39:52;-2.80;99.90
42365;DHT22;28498;54.400;18.566;2023-04-06T02:42:19;-2.90;99.90
42365;DHT22;28498;54.400;18.566;2023-04-06T02:44:46;-3.00;99.90
42365;DHT22;28498;54.400;18.566;2023-04-06T02:47:13;-3.00;99.90
42365;DHT22;28498;54.400;18.566;2023-04-06T02:49:40;-3.10;99.90
42365;DHT22;28498;54.400;18.566;2023-04-06T02:52:07;-3.00;99.90
42365;DHT22;28498;54.400;18.566;2023-04-06T02:54:34;-3.00;99.90
42365;DHT22;28498;54.400;18.566;2023-04-06T02:57:01;-3.00;99.90
42365;DHT22;28498;54.400;18.566;2023-04-06T02:59:29;-2.90;99.90
42365;DHT22;28498;54.400;18.566;2023-04-06T03:01:56;-2.90;99.90
42365;DHT22;28498;54.400;18.566;2023-04-06T03:04:23;-2.80;99.90
42365;DHT22;28498;54.400;18.566;2023-04-06T03:06:54;-2.80;99.90
42365;DHT22;28498;54.400;18.566;2023-04-06T03:09:21;-2.90;99.90
42365;DHT22;28498;54.400;18.566;2023-04-06T03:11:48;-3.00;99.90
42365;DHT22;28498;54.400;18.566;2023-04-06T03:14:16;-3.10;99.90
42365;DHT22;28498;54.400;18.566;2023-04-06T03:16:48;-3.20;99.90
42365;DHT22;28498;54.400;18.566;2023-04-06T03:19:15;-3.30;99.90
42365;DHT22;28498;54.400;18.566;2023-04-06T03:21:42;-3.30;99.90
42365;DHT22;28498;54.400;18.566;2023-04-06T03:24:09;-3.20;99.90
42365;DHT22;28498;54.400;18.566;2023-04-06T03:26:36;-3.40;99.90
42365;DHT22;28498;54.400;18.566;2023-04-06T03:29:03;-3.40;99.90
42365;DHT22;28498;54.400;18.566;2023-04-06T03:31:31;-3.50;99.90
42365;DHT22;28498;54.400;18.566;2023-04-06T03:33:58;-3.50;99.90
42365;DHT22;28498;54.400;18.566;2023-04-06T03:36:26;-3.50;99.90
42365;DHT22;28498;54.400;18.566;2023-04-06T03:38:53;-3.40;99.90
42365;DHT22;28498;54.400;18.566;2023-04-06T03:41:20;-3.40;99.90
42365;DHT22;28498;54.400;18.566;2023-04-06T03:43:47;-3.30;99.90
42365;DHT22;28498;54.400;18.566;2023-04-06T03:46:14;-3.30;99.90
42365;DHT22;28498;54.400;18.566;2023-04-06T03:48:41;-3.40;99.90
42365;DHT22;28498;54.400;18.566;2023-04-06T03:51:09;-3.50;99.90
42365;DHT22;28498;54.400;18.566;2023-04-06T03:53:36;-3.40;99.90
42365;DHT22;28498;54.400;18.566;2023-04-06T03:56:04;-3.30;99.90
42365;DHT22;28498;54.400;18.566;2023-04-06T03:58:31;-3.30;99.90
42365;DHT22;28498;54.400;18.566;2023-04-06T04:00:58;-3.50;99.90
42365;DHT22;28498;54.400;18.566;2023-04-06T04:03:25;-3.60;99.90
42365;DHT22;28498;54.400;18.566;2023-04-06T04:05:54;-3.50;99.90
42365;DHT22;28498;54.400;18.566;2023-04-06T04:08:24;-3.60;99.90
42365;DHT22;28498;54.400;18.566;2023-04-06T04:10:51;-3.60;99.90
42365;DHT22;28498;54.400;18.566;2023-04-06T04:13:19;-3.60;99.90
42365;DHT22;28498;54.400;18.566;2023-04-06T04:15:46;-3.60;99.90
42365;DHT22;28498;54.400;18.566;2023-04-06T04:18:14;-3.40;99.90
42365;DHT22;28498;54.400;18.566;2023-04-06T04:20:41;-3.30;99.90
42365;DHT22;28498;54.400;18.566;2023-04-06T04:23:08;-3.30;99.90
42365;DHT22;28498;54.400;18.566;2023-04-06T04:25:35;-3.40;99.90
42365;DHT22;28498;54.400;18.566;2023-04-06T04:28:02;-3.50;99.90
42365;DHT22;28498;54.400;18.566;2023-04-06T04:30:29;-3.40;99.90
42365;DHT22;28498;54.400;18.566;2023-04-06T04:32:56;-3.40;99.90
42365;DHT22;28498;54.400;18.566;2023-04-06T04:35:23;-3.40;99.90
42365;DHT22;28498;54.400;18.566;2023-04-06T04:37:50;-3.10;99.90
42365;DHT22;28498;54.400;18.566;2023-04-06T04:40:17;-3.30;99.90
42365;DHT22;28498;54.400;18.566;2023-04-06T04:42:44;-3.30;99.90
42365;DHT22;28498;54.400;18.566;2023-04-06T04:45:11;-3.20;99.90
42365;DHT22;28498;54.400;18.566;2023-04-06T04:47:38;-3.10;99.90
42365;DHT22;28498;54.400;18.566;2023-04-06T04:50:06;-2.90;99.90
42365;DHT22;28498;54.400;18.566;2023-04-06T04:52:33;-2.80;99.90
42365;DHT22;28498;54.400;18.566;2023-04-06T04:54:59;-2.80;99.90
42365;DHT22;28498;54.400;18.566;2023-04-06T04:57:27;-2.70;99.90
42365;DHT22;28498;54.400;18.566;2023-04-06T04:59:54;-2.70;99.90
42365;DHT22;28498;54.400;18.566;2023-04-06T05:02:23;-2.60;99.90
42365;DHT22;28498;54.400;18.566;2023-04-06T05:04:51;-2.50;99.90
42365;DHT22;28498;54.400;18.566;2023-04-06T05:07:17;-2.50;99.90
42365;DHT22;28498;54.400;18.566;2023-04-06T05:09:45;-2.40;99.90
42365;DHT22;28498;54.400;18.566;2023-04-06T05:12:12;-2.30;99.90
42365;DHT22;28498;54.400;18.566;2023-04-06T05:14:39;-2.20;99.90
42365;DHT22;28498;54.400;18.566;2023-04-06T05:17:07;-2.10;99.90
42365;DHT22;28498;54.400;18.566;2023-04-06T05:19:34;-2.00;99.90
42365;DHT22;28498;54.400;18.566;2023-04-06T05:22:01;-1.90;99.90
42365;DHT22;28498;54.400;18.566;2023-04-06T05:24:28;-1.70;99.90
42365;DHT22;28498;54.400;18.566;2023-04-06T05:26:55;-1.60;99.90
42365;DHT22;28498;54.400;18.566;2023-04-06T05:29:22;-1.50;99.90
42365;DHT22;28498;54.400;18.566;2023-04-06T05:31:50;-1.40;99.90
42365;DHT22;28498;54.400;18.566;2023-04-06T05:34:17;-1.30;99.90
42365;DHT22;28498;54.400;18.566;2023-04-06T05:36:44;-1.20;99.90
42365;DHT22;28498;54.400;18.566;2023-04-06T05:39:11;-1.10;99.90
42365;DHT22;28498;54.400;18.566;2023-04-06T05:41:39;-1.10;99.90
42365;DHT22;28498;54.400;18.566;2023-04-06T05:44:05;-0.90;99.90
42365;DHT22;28498;54.400;18.566;2023-04-06T05:46:32;-0.80;99.90
42365;DHT22;28498;54.400;18.566;2023-04-06T05:48:59;-0.70;99.90
42365;DHT22;28498;54.400;18.566;2023-04-06T05:51:26;-0.60;99.90
42365;DHT22;28498;54.400;18.566;2023-04-06T05:53:54;-0.40;99.90
42365;DHT22;28498;54.400;18.566;2023-04-06T05:56:21;-0.20;99.90
42365;DHT22;28498;54.400;18.566;2023-04-06T05:58:48;-0.10;99.90
42365;DHT22;28498;54.400;18.566;2023-04-06T06:01:15;0.00;99.90
42365;DHT22;28498;54.400;18.566;2023-04-06T06:03:42;0.20;98.40
42365;DHT22;28498;54.400;18.566;2023-04-06T06:06:09;0.30;88.40
42365;DHT22;28498;54.400;18.566;2023-04-06T06:08:36;0.50;84.00
42365;DHT22;28498;54.400;18.566;2023-04-06T06:11:03;0.80;71.40
42365;DHT22;28498;54.400;18.566;2023-04-06T06:13:30;0.90;99.90
42365;DHT22;28498;54.400;18.566;2023-04-06T06:15:57;1.00;99.90
42365;DHT22;28498;54.400;18.566;2023-04-06T06:18:24;1.20;99.90
42365;DHT22;28498;54.400;18.566;2023-04-06T06:20:51;1.40;99.90
42365;DHT22;28498;54.400;18.566;2023-04-06T06:23:18;1.60;99.90
42365;DHT22;28498;54.400;18.566;2023-04-06T06:25:45;1.80;99.90
42365;DHT22;28498;54.400;18.566;2023-04-06T06:28:12;1.90;99.90
42365;DHT22;28498;54.400;18.566;2023-04-06T06:30:39;2.20;99.90
42365;DHT22;28498;54.400;18.566;2023-04-06T06:33:06;2.40;99.90
42365;DHT22;28498;54.400;18.566;2023-04-06T06:35:33;2.50;99.90
42365;DHT22;28498;54.400;18.566;2023-04-06T06:38:00;2.70;99.90
42365;DHT22;28498;54.400;18.566;2023-04-06T06:40:27;2.80;99.90
42365;DHT22;28498;54.400;18.566;2023-04-06T06:42:54;2.90;99.90
42365;DHT22;28498;54.400;18.566;2023-04-06T06:45:21;3.10;99.90
42365;DHT22;28498;54.400;18.566;2023-04-06T06:47:48;3.10;99.90
42365;DHT22;28498;54.400;18.566;2023-04-06T06:50:18;3.30;99.90
42365;DHT22;28498;54.400;18.566;2023-04-06T06:52:45;3.30;99.90
42365;DHT22;28498;54.400;18.566;2023-04-06T06:55:12;3.40;99.90
42365;DHT22;28498;54.400;18.566;2023-04-06T06:57:39;3.40;99.90
42365;DHT22;28498;54.400;18.566;2023-04-06T07:00:09;3.40;99.90
42365;DHT22;28498;54.400;18.566;2023-04-06T07:02:39;3.50;99.90
42365;DHT22;28498;54.400;18.566;2023-04-06T07:05:07;3.60;99.90
42365;DHT22;28498;54.400;18.566;2023-04-06T07:07:49;3.80;99.90
42365;DHT22;28498;54.400;18.566;2023-04-06T07:10:16;3.90;99.90
42365;DHT22;28498;54.400;18.566;2023-04-06T07:12:43;4.00;99.90
42365;DHT22;28498;54.400;18.566;2023-04-06T07:15:10;4.20;99.90
42365;DHT22;28498;54.400;18.566;2023-04-06T07:17:37;4.40;99.90
42365;DHT22;28498;54.400;18.566;2023-04-06T07:20:05;4.20;99.90
42365;DHT22;28498;54.400;18.566;2023-04-06T07:22:32;4.10;99.90
42365;DHT22;28498;54.400;18.566;2023-04-06T07:24:59;4.20;99.90
42365;DHT22;28498;54.400;18.566;2023-04-06T07:27:26;4.20;99.90
42365;DHT22;28498;54.400;18.566;2023-04-06T07:29:53;4.20;99.90
42365;DHT22;28498;54.400;18.566;2023-04-06T07:32:20;4.40;99.90
42365;DHT22;28498;54.400;18.566;2023-04-06T07:34:47;4.50;99.90
42365;DHT22;28498;54.400;18.566;2023-04-06T07:37:14;4.40;99.90
42365;DHT22;28498;54.400;18.566;2023-04-06T07:39:41;4.40;99.90
42365;DHT22;28498;54.400;18.566;2023-04-06T07:42:08;4.30;99.90
42365;DHT22;28498;54.400;18.566;2023-04-06T07:44:35;4.30;99.90
42365;DHT22;28498;54.400;18.566;2023-04-06T07:47:02;4.50;99.90
42365;DHT22;28498;54.400;18.566;2023-04-06T07:49:29;4.40;99.90
42365;DHT22;28498;54.400;18.566;2023-04-06T07:51:57;4.50;99.90
42365;DHT22;28498;54.400;18.566;2023-04-06T07:54:24;4.50;99.90
42365;DHT22;28498;54.400;18.566;2023-04-06T07:56:51;4.50;99.90
42365;DHT22;28498;54.400;18.566;2023-04-06T07:59:18;4.70;99.90
42365;DHT22;28498;54.400;18.566;2023-04-06T08:01:45;4.70;99.90
42365;DHT22;28498;54.400;18.566;2023-04-06T08:04:12;4.40;99.90
42365;DHT22;28498;54.400;18.566;2023-04-06T08:06:39;4.30;99.90
42365;DHT22;28498;54.400;18.566;2023-04-06T08:09:07;4.40;99.90
42365;DHT22;28498;54.400;18.566;2023-04-06T08:11:34;4.70;99.90
42365;DHT22;28498;54.400;18.566;2023-04-06T08:14:01;4.80;99.90
42365;DHT22;28498;54.400;18.566;2023-04-06T08:16:28;4.50;99.90
42365;DHT22;28498;54.400;18.566;2023-04-06T08:18:55;4.70;99.90
42365;DHT22;28498;54.400;18.566;2023-04-06T08:21:22;4.80;99.90
42365;DHT22;28498;54.400;18.566;2023-04-06T08:23:49;5.00;99.90
42365;DHT22;28498;54.400;18.566;2023-04-06T08:26:16;5.10;99.90
42365;DHT22;28498;54.400;18.566;2023-04-06T08:28:43;4.90;99.90
42365;DHT22;28498;54.400;18.566;2023-04-06T08:31:12;5.10;99.90
42365;DHT22;28498;54.400;18.566;2023-04-06T08:33:39;4.80;99.90
42365;DHT22;28498;54.400;18.566;2023-04-06T08:36:11;5.00;99.90
42365;DHT22;28498;54.400;18.566;2023-04-06T08:38:39;4.70;99.90
42365;DHT22;28498;54.400;18.566;2023-04-06T08:41:08;4.60;99.90
42365;DHT22;28498;54.400;18.566;2023-04-06T08:43:58;4.70;99.90
42365;DHT22;28498;54.400;18.566;2023-04-06T08:46:26;4.80;99.90
42365;DHT22;28498;54.400;18.566;2023-04-06T08:48:58;4.90;99.90
42365;DHT22;28498;54.400;18.566;2023-04-06T08:51:27;4.90;99.90
42365;DHT22;28498;54.400;18.566;2023-04-06T08:53:56;4.60;99.90
42365;DHT22;28498;54.400;18.566;2023-04-06T08:56:24;4.70;99.90
42365;DHT22;28498;54.400;18.566;2023-04-06T08:58:53;4.80;99.90
42365;DHT22;28498;54.400;18.566;2023-04-06T09:01:24;4.90;99.90
42365;DHT22;28498;54.400;18.566;2023-04-06T09:03:56;4.80;99.90
42365;DHT22;28498;54.400;18.566;2023-04-06T09:06:25;4.90;99.90
42365;DHT22;28498;54.400;18.566;2023-04-06T09:08:57;5.00;99.90
42365;DHT22;28498;54.400;18.566;2023-04-06T09:11:24;4.80;99.90
42365;DHT22;28498;54.400;18.566;2023-04-06T09:13:55;4.80;99.90
42365;DHT22;28498;54.400;18.566;2023-04-06T09:16:23;4.90;99.90
42365;DHT22;28498;54.400;18.566;2023-04-06T09:18:50;4.90;99.90
42365;DHT22;28498;54.400;18.566;2023-04-06T09:21:19;4.60;99.90
42365;DHT22;28498;54.400;18.566;2023-04-06T09:24:00;4.50;99.90
42365;DHT22;28498;54.400;18.566;2023-04-06T09:26:27;4.50;99.90
42365;DHT22;28498;54.400;18.566;2023-04-06T09:28:57;4.60;99.90
42365;DHT22;28498;54.400;18.566;2023-04-06T09:31:29;4.50;99.90
42365;DHT22;28498;54.400;18.566;2023-04-06T09:33:57;4.70;99.90
42365;DHT22;28498;54.400;18.566;2023-04-06T09:36:31;4.70;99.90
42365;DHT22;28498;54.400;18.566;2023-04-06T09:39:03;4.70;99.90
42365;DHT22;28498;54.400;18.566;2023-04-06T09:41:33;4.70;99.90
42365;DHT22;28498;54.400;18.566;2023-04-06T09:44:07;4.60;99.90
42365;DHT22;28498;54.400;18.566;2023-04-06T09:50:22;4.80;99.90
42365;DHT22;28498;54.400;18.566;2023-04-06T09:52:54;5.00;99.90
42365;DHT22;28498;54.400;18.566;2023-04-06T09:55:28;5.10;99.90
42365;DHT22;28498;54.400;18.566;2023-04-06T09:58:06;4.90;99.90
42365;DHT22;28498;54.400;18.566;2023-04-06T10:01:03;4.80;99.90
42365;DHT22;28498;54.400;18.566;2023-04-06T10:06:19;4.70;99.90
42365;DHT22;28498;54.400;18.566;2023-04-06T10:08:50;4.80;99.90
42365;DHT22;28498;54.400;18.566;2023-04-06T10:11:18;4.50;99.90
42365;DHT22;28498;54.400;18.566;2023-04-06T10:13:47;4.50;99.90
42365;DHT22;28498;54.400;18.566;2023-04-06T10:16:15;4.70;99.90
42365;DHT22;28498;54.400;18.566;2023-04-06T10:18:54;4.90;99.90
42365;DHT22;28498;54.400;18.566;2023-04-06T10:21:25;4.90;99.90
42365;DHT22;28498;54.400;18.566;2023-04-06T10:24:01;5.00;99.90
42365;DHT22;28498;54.400;18.566;2023-04-06T10:26:28;4.70;99.90
42365;DHT22;28498;54.400;18.566;2023-04-06T10:29:01;4.80;99.90
42365;DHT22;28498;54.400;18.566;2023-04-06T10:31:29;5.00;99.90
42365;DHT22;28498;54.400;18.566;2023-04-06T10:33:58;5.10;99.90
42365;DHT22;28498;54.400;18.566;2023-04-06T10:36:27;5.00;99.90
42365;DHT22;28498;54.400;18.566;2023-04-06T10:39:03;5.20;99.90
42365;DHT22;28498;54.400;18.566;2023-04-06T10:41:36;5.50;99.90
42365;DHT22;28498;54.400;18.566;2023-04-06T10:44:03;5.50;99.90
42365;DHT22;28498;54.400;18.566;2023-04-06T10:46:31;5.50;99.90
42365;DHT22;28498;54.400;18.566;2023-04-06T10:49:10;5.40;99.90
42365;DHT22;28498;54.400;18.566;2023-04-06T10:51:38;5.20;99.90
42365;DHT22;28498;54.400;18.566;2023-04-06T10:54:07;5.10;99.90
42365;DHT22;28498;54.400;18.566;2023-04-06T10:56:37;5.30;99.90
42365;DHT22;28498;54.400;18.566;2023-04-06T10:59:05;5.00;99.90
42365;DHT22;28498;54.400;18.566;2023-04-06T11:01:33;4.90;99.90
42365;DHT22;28498;54.400;18.566;2023-04-06T11:04:00;4.80;99.90
42365;DHT22;28498;54.400;18.566;2023-04-06T11:06:29;4.80;99.90
42365;DHT22;28498;54.400;18.566;2023-04-06T11:08:58;4.90;99.90
42365;DHT22;28498;54.400;18.566;2023-04-06T11:11:26;4.70;99.90
42365;DHT22;28498;54.400;18.566;2023-04-06T11:13:56;4.90;99.90
42365;DHT22;28498;54.400;18.566;2023-04-06T11:16:29;4.90;99.90
42365;DHT22;28498;54.400;18.566;2023-04-06T11:19:01;4.90;99.90
42365;DHT22;28498;54.400;18.566;2023-04-06T11:21:42;4.90;99.90
42365;DHT22;28498;54.400;18.566;2023-04-06T11:24:17;4.90;99.90
42365;DHT22;28498;54.400;18.566;2023-04-06T11:26:50;4.90;99.90
42365;DHT22;28498;54.400;18.566;2023-04-06T11:29:19;5.20;99.90
42365;DHT22;28498;54.400;18.566;2023-04-06T11:31:48;5.40;99.90
42365;DHT22;28498;54.400;18.566;2023-04-06T11:34:23;5.50;99.90
42365;DHT22;28498;54.400;18.566;2023-04-06T11:36:58;5.60;99.90
42365;DHT22;28498;54.400;18.566;2023-04-06T11:39:27;5.10;99.90
42365;DHT22;28498;54.400;18.566;2023-04-06T11:42:00;4.70;99.90
42365;DHT22;28498;54.400;18.566;2023-04-06T11:44:43;4.60;99.90
42365;DHT22;28498;54.400;18.566;2023-04-06T11:47:12;4.50;99.90
42365;DHT22;28498;54.400;18.566;2023-04-06T11:49:41;4.90;99.90
42365;DHT22;28498;54.400;18.566;2023-04-06T11:52:35;4.90;99.90
42365;DHT22;28498;54.400;18.566;2023-04-06T11:55:16;5.10;99.90
42365;DHT22;28498;54.400;18.566;2023-04-06T11:57:44;4.80;99.90
42365;DHT22;28498;54.400;18.566;2023-04-06T12:00:12;4.70;99.90
42365;DHT22;28498;54.400;18.566;2023-04-06T12:02:39;4.60;99.90
42365;DHT22;28498;54.400;18.566;2023-04-06T12:05:07;4.40;99.90
42365;DHT22;28498;54.400;18.566;2023-04-06T12:07:35;4.30;99.90
42365;DHT22;28498;54.400;18.566;2023-04-06T12:10:03;4.40;99.90
42365;DHT22;28498;54.400;18.566;2023-04-06T12:12:30;4.50;99.90
42365;DHT22;28498;54.400;18.566;2023-04-06T12:14:58;4.50;99.90
42365;DHT22;28498;54.400;18.566;2023-04-06T12:17:25;4.50;99.90
42365;DHT22;28498;54.400;18.566;2023-04-06T12:19:52;4.30;99.90
42365;DHT22;28498;54.400;18.566;2023-04-06T12:22:19;4.50;99.90
42365;DHT22;28498;54.400;18.566;2023-04-06T12:24:46;4.50;99.90
42365;DHT22;28498;54.400;18.566;2023-04-06T12:27:13;4.60;99.90
42365;DHT22;28498;54.400;18.566;2023-04-06T12:29:41;4.60;99.90
42365;DHT22;28498;54.400;18.566;2023-04-06T12:32:08;4.90;99.90
42365;DHT22;28498;54.400;18.566;2023-04-06T12:34:35;4.90;99.90
42365;DHT22;28498;54.400;18.566;2023-04-06T12:37:02;4.80;99.90
42365;DHT22;28498;54.400;18.566;2023-04-06T12:39:29;4.90;99.90
42365;DHT22;28498;54.400;18.566;2023-04-06T12:41:56;4.70;99.90
42365;DHT22;28498;54.400;18.566;2023-04-06T12:44:23;4.70;99.90
42365;DHT22;28498;54.400;18.566;2023-04-06T12:46:52;4.60;99.90
42365;DHT22;28498;54.400;18.566;2023-04-06T12:49:19;4.70;99.90
42365;DHT22;28498;54.400;18.566;2023-04-06T12:51:47;4.70;99.90
42365;DHT22;28498;54.400;18.566;2023-04-06T12:54:14;5.10;99.90
42365;DHT22;28498;54.400;18.566;2023-04-06T12:56:41;4.90;99.90
42365;DHT22;28498;54.400;18.566;2023-04-06T12:59:07;4.70;99.90
42365;DHT22;28498;54.400;18.566;2023-04-06T13:01:35;4.70;99.90
42365;DHT22;28498;54.400;18.566;2023-04-06T13:04:02;4.40;99.90
42365;DHT22;28498;54.400;18.566;2023-04-06T13:06:29;4.40;99.90
42365;DHT22;28498;54.400;18.566;2023-04-06T13:08:57;4.60;99.90
42365;DHT22;28498;54.400;18.566;2023-04-06T13:11:25;4.50;99.90
42365;DHT22;28498;54.400;18.566;2023-04-06T13:13:54;4.30;99.90
42365;DHT22;28498;54.400;18.566;2023-04-06T13:16:21;4.70;99.90
42365;DHT22;28498;54.400;18.566;2023-04-06T13:18:48;4.80;99.90
42365;DHT22;28498;54.400;18.566;2023-04-06T13:21:17;4.60;99.90
42365;DHT22;28498;54.400;18.566;2023-04-06T13:23:44;4.70;99.90
42365;DHT22;28498;54.400;18.566;2023-04-06T13:26:11;4.70;99.90
42365;DHT22;28498;54.400;18.566;2023-04-06T13:28:40;4.70;99.90
42365;DHT22;28498;54.400;18.566;2023-04-06T13:31:08;4.60;99.90
42365;DHT22;28498;54.400;18.566;2023-04-06T13:33:36;4.90;99.90
42365;DHT22;28498;54.400;18.566;2023-04-06T13:36:04;5.00;99.90
42365;DHT22;28498;54.400;18.566;2023-04-06T13:38:33;4.90;99.90
42365;DHT22;28498;54.400;18.566;2023-04-06T13:44:41;5.10;99.90
42365;DHT22;28498;54.400;18.566;2023-04-06T13:47:08;4.90;99.90
42365;DHT22;28498;54.400;18.566;2023-04-06T13:49:35;4.60;99.90
42365;DHT22;28498;54.400;18.566;2023-04-06T13:52:02;4.30;99.90
42365;DHT22;28498;54.400;18.566;2023-04-06T13:54:29;4.10;99.90
42365;DHT22;28498;54.400;18.566;2023-04-06T13:56:56;4.10;99.90
42365;DHT22;28498;54.400;18.566;2023-04-06T13:59:23;4.10;99.90
42365;DHT22;28498;54.400;18.566;2023-04-06T14:01:50;4.20;99.90
42365;DHT22;28498;54.400;18.566;2023-04-06T14:04:18;4.10;99.90
42365;DHT22;28498;54.400;18.566;2023-04-06T14:06:45;4.20;99.90
42365;DHT22;28498;54.400;18.566;2023-04-06T14:09:13;4.30;99.90
42365;DHT22;28498;54.400;18.566;2023-04-06T14:11:40;4.40;99.90
42365;DHT22;28498;54.400;18.566;2023-04-06T14:14:07;4.40;99.90
42365;DHT22;28498;54.400;18.566;2023-04-06T14:16:34;4.40;99.90
42365;DHT22;28498;54.400;18.566;2023-04-06T14:19:01;4.30;99.90
42365;DHT22;28498;54.400;18.566;2023-04-06T14:21:28;4.40;99.90
42365;DHT22;28498;54.400;18.566;2023-04-06T14:23:55;4.50;99.90
42365;DHT22;28498;54.400;18.566;2023-04-06T14:26:25;4.40;99.90
42365;DHT22;28498;54.400;18.566;2023-04-06T14:28:53;4.30;99.90
42365;DHT22;28498;54.400;18.566;2023-04-06T14:31:20;4.30;99.90
42365;DHT22;28498;54.400;18.566;2023-04-06T14:33:48;4.30;99.90
42365;DHT22;28498;54.400;18.566;2023-04-06T14:36:15;4.20;99.90
42365;DHT22;28498;54.400;18.566;2023-04-06T14:38:42;4.30;99.90
42365;DHT22;28498;54.400;18.566;2023-04-06T14:41:18;4.30;99.90
42365;DHT22;28498;54.400;18.566;2023-04-06T14:43:46;4.30;99.90
42365;DHT22;28498;54.400;18.566;2023-04-06T14:46:14;4.00;99.90
42365;DHT22;28498;54.400;18.566;2023-04-06T14:48:45;4.00;99.90
42365;DHT22;28498;54.400;18.566;2023-04-06T14:51:12;3.90;99.90
42365;DHT22;28498;54.400;18.566;2023-04-06T14:53:39;3.80;99.90
42365;DHT22;28498;54.400;18.566;2023-04-06T14:56:06;3.80;99.90
42365;DHT22;28498;54.400;18.566;2023-04-06T14:58:33;3.70;99.90
42365;DHT22;28498;54.400;18.566;2023-04-06T15:01:01;3.60;99.90
42365;DHT22;28498;54.400;18.566;2023-04-06T15:03:29;3.60;99.90
42365;DHT22;28498;54.400;18.566;2023-04-06T15:05:57;3.50;99.90
42365;DHT22;28498;54.400;18.566;2023-04-06T15:08:24;3.50;99.90
42365;DHT22;28498;54.400;18.566;2023-04-06T15:10:52;3.60;99.90
42365;DHT22;28498;54.400;18.566;2023-04-06T15:13:19;3.50;99.90
42365;DHT22;28498;54.400;18.566;2023-04-06T15:15:46;3.50;99.90
42365;DHT22;28498;54.400;18.566;2023-04-06T15:18:13;3.50;99.90
42365;DHT22;28498;54.400;18.566;2023-04-06T15:20:40;3.60;99.90
42365;DHT22;28498;54.400;18.566;2023-04-06T15:23:07;3.70;99.90
42365;DHT22;28498;54.400;18.566;2023-04-06T15:25:34;3.70;99.90
42365;DHT22;28498;54.400;18.566;2023-04-06T15:28:01;3.60;99.90
42365;DHT22;28498;54.400;18.566;2023-04-06T15:30:28;3.40;99.90
42365;DHT22;28498;54.400;18.566;2023-04-06T15:32:58;3.40;99.90
42365;DHT22;28498;54.400;18.566;2023-04-06T15:35:27;3.30;99.90
42365;DHT22;28498;54.400;18.566;2023-04-06T15:37:56;3.30;99.90
42365;DHT22;28498;54.400;18.566;2023-04-06T15:40:24;3.40;99.90